Airfield :
LOGIN :

Register | Disclaimer

   EN    FR    IT 

 










Legend :    VFR   Marginal VFR   IFR   Intensive IFR   Very Intensive IFR
Visi :
Ceiling :
>= 8 km
>= 3000ft
5 to 8 km
1000 to 3000 ft
1500m to 5 km
500 to 1000 ft
800 to 1500m
200 to 500 ft
< 800m
< 200 ft
Symbols :   Thunderstorms  Fog  Heavy snow  Heavy precipitations  Wind > 20 kt
SIGMETs :     Misc.  Thunderstorms  Icing  Turbulence  Mountain Waves  Volcanic Ashes






- Airport Elevation : 1674 ft
- IATA code : BRN


LSZB - Bern Belp

CURRENT METAR :
  • 290820Z 12004KT 9999 FEW005 BKN028 05/04 Q1016

EXPIRED METARs :
  • 290750Z 14004KT 9999 FEW005 BKN031 05/04 Q1016
  • 290720Z 10005KT 9999 FEW005 BKN055 05/04 Q1015
  • 290650Z 11003KT 9999 -DZ FEW008 BKN060 05/04 Q1015
  • 290620Z 12005KT 9999 -RA FEW015 SCT026 BKN042 05/04 Q1015
  • 290550Z AUTO 12005KT 9999 -RA SCT027 SCT030 BKN038 05/04 Q1015

TAF TAF LSZB
Valid from the 29 at 09:00 until the 29 at 18:00 UTC


290825Z 2909/2918 VRB02KT 9999 FEW010 BKN030
PROB30
TEMPO 2909/2918 4000 SCT010 BKN012
ATIS : +41 22 417 40 76



MET'MAP, your aeronautical weather chart ! - Copyright ORBIFLY December 2007 - Disclaimer

ORBIFLY MET'MAP TEAM :

Programming & Development : Alexandra Zaïnal
Original concept : Baudouin d'Aumeries
Technical & hardware support : Manuel Goepfert
Assistance : Marc-Olivier Méhu




SOURCES & CREDITS :

   NOAA